sensor_id;sensor_type;location;lat;lon;timestamp;pressure;altitude;pressure_sealevel;temperature;humidity
36138;BME280;67787;50.074;21.904;2023-08-06T06:00:44;97366.60;;;22.30;83.96
36138;BME280;67787;50.074;21.904;2023-08-06T06:03:17;97361.24;;;22.35;84.21
36138;BME280;67787;50.074;21.904;2023-08-06T06:05:49;97352.96;;;22.40;83.99
36138;BME280;67787;50.074;21.904;2023-08-06T06:08:21;97354.84;;;22.43;84.09
36138;BME280;67787;50.074;21.904;2023-08-06T06:10:48;97349.45;;;22.46;84.10
36138;BME280;67787;50.074;21.904;2023-08-06T06:13:15;97347.99;;;22.49;84.02
36138;BME280;67787;50.074;21.904;2023-08-06T06:15:43;97344.50;;;22.45;83.73
36138;BME280;67787;50.074;21.904;2023-08-06T06:18:13;97344.91;;;22.44;84.10
36138;BME280;67787;50.074;21.904;2023-08-06T06:20:45;97345.34;;;22.51;84.11
36138;BME280;67787;50.074;21.904;2023-08-06T07:03:25;97326.30;;;24.16;83.23
36138;BME280;67787;50.074;21.904;2023-08-06T07:05:59;97325.39;;;24.20;82.99
36138;BME280;67787;50.074;21.904;2023-08-06T07:08:30;97327.67;;;24.26;82.96
36138;BME280;67787;50.074;21.904;2023-08-06T07:11:44;97327.27;;;24.27;82.77
36138;BME280;67787;50.074;21.904;2023-08-06T07:14:13;97320.71;;;24.29;82.59
36138;BME280;67787;50.074;21.904;2023-08-06T07:17:26;97321.83;;;24.33;82.71
36138;BME280;67787;50.074;21.904;2023-08-06T07:19:54;97322.01;;;24.36;82.76
36138;BME280;67787;50.074;21.904;2023-08-06T07:22:22;97314.27;;;24.42;82.70
36138;BME280;67787;50.074;21.904;2023-08-06T07:24:50;97314.17;;;24.46;82.64
36138;BME280;67787;50.074;21.904;2023-08-06T07:27:17;97313.80;;;24.49;82.59
36138;BME280;67787;50.074;21.904;2023-08-06T07:29:44;97311.86;;;24.54;82.64
36138;BME280;67787;50.074;21.904;2023-08-06T07:32:13;97310.11;;;24.56;82.17
36138;BME280;67787;50.074;21.904;2023-08-06T07:34:41;97317.30;;;24.61;82.59
36138;BME280;67787;50.074;21.904;2023-08-06T07:37:30;97316.88;;;24.68;82.33
36138;BME280;67787;50.074;21.904;2023-08-06T07:39:57;97315.34;;;24.74;82.10
36138;BME280;67787;50.074;21.904;2023-08-06T07:42:27;97316.82;;;24.86;82.55
36138;BME280;67787;50.074;21.904;2023-08-06T07:45:15;97307.45;;;24.91;81.81
36138;BME280;67787;50.074;21.904;2023-08-06T07:47:42;97313.91;;;24.91;81.69
36138;BME280;67787;50.074;21.904;2023-08-06T07:50:10;97312.70;;;24.93;81.71
36138;BME280;67787;50.074;21.904;2023-08-06T09:30:43;97336.38;;;25.95;74.99
36138;BME280;67787;50.074;21.904;2023-08-06T09:34:25;97330.62;;;25.87;74.89
36138;BME280;67787;50.074;21.904;2023-08-06T09:49:44;97330.44;;;25.68;73.76
36138;BME280;67787;50.074;21.904;2023-08-06T09:52:17;97323.86;;;25.73;73.86
36138;BME280;67787;50.074;21.904;2023-08-06T09:55:24;97325.38;;;25.81;73.75
36138;BME280;67787;50.074;21.904;2023-08-06T10:32:50;97304.41;;;25.44;71.11
36138;BME280;67787;50.074;21.904;2023-08-06T10:36:07;97301.53;;;25.33;71.02
36138;BME280;67787;50.074;21.904;2023-08-06T10:39:00;97308.23;;;25.25;71.31
36138;BME280;67787;50.074;21.904;2023-08-06T11:00:51;97273.77;;;25.16;70.36
36138;BME280;67787;50.074;21.904;2023-08-06T11:10:51;97279.16;;;25.20;70.04
36138;BME280;67787;50.074;21.904;2023-08-06T11:19:54;97288.60;;;25.11;69.31
36138;BME280;67787;50.074;21.904;2023-08-06T11:22:47;97292.05;;;25.13;69.72
36138;BME280;67787;50.074;21.904;2023-08-06T11:28:42;97292.62;;;25.08;69.38
36138;BME280;67787;50.074;21.904;2023-08-06T11:37:59;97285.92;;;25.25;69.30
36138;BME280;67787;50.074;21.904;2023-08-06T11:47:03;97278.33;;;25.45;68.81
36138;BME280;67787;50.074;21.904;2023-08-06T11:50:04;97281.94;;;25.44;68.56
36138;BME280;67787;50.074;21.904;2023-08-06T11:52:56;97279.48;;;25.43;68.52
36138;BME280;67787;50.074;21.904;2023-08-06T11:56:01;97277.15;;;25.40;68.22
36138;BME280;67787;50.074;21.904;2023-08-06T12:13:09;97271.05;;;25.24;67.24
36138;BME280;67787;50.074;21.904;2023-08-06T12:16:06;97270.48;;;25.28;67.62
36138;BME280;67787;50.074;21.904;2023-08-06T12:18:53;97273.73;;;25.34;67.74
36138;BME280;67787;50.074;21.904;2023-08-06T12:21:57;97275.11;;;25.38;67.11
36138;BME280;67787;50.074;21.904;2023-08-06T12:24:54;97277.09;;;25.43;67.45
36138;BME280;67787;50.074;21.904;2023-08-06T12:27:53;97268.44;;;25.48;67.05
36138;BME280;67787;50.074;21.904;2023-08-06T12:30:28;97280.14;;;25.51;66.99
36138;BME280;67787;50.074;21.904;2023-08-06T12:36:19;97298.81;;;25.59;66.40
36138;BME280;67787;50.074;21.904;2023-08-06T12:39:03;97301.32;;;25.60;66.90
36138;BME280;67787;50.074;21.904;2023-08-06T12:42:05;97298.25;;;25.63;66.70
36138;BME280;67787;50.074;21.904;2023-08-06T12:45:15;97298.92;;;25.64;66.47
36138;BME280;67787;50.074;21.904;2023-08-06T12:47:56;97305.22;;;25.62;66.41
36138;BME280;67787;50.074;21.904;2023-08-06T12:50:39;97308.23;;;25.56;65.98
36138;BME280;67787;50.074;21.904;2023-08-06T13:02:40;97311.52;;;25.41;65.99
36138;BME280;67787;50.074;21.904;2023-08-06T13:06:14;97305.74;;;25.42;65.57
36138;BME280;67787;50.074;21.904;2023-08-06T13:08:42;97310.73;;;25.44;65.62
36138;BME280;67787;50.074;21.904;2023-08-06T13:11:09;97312.92;;;25.47;66.01
36138;BME280;67787;50.074;21.904;2023-08-06T13:14:13;97316.73;;;25.52;65.54
36138;BME280;67787;50.074;21.904;2023-08-06T13:16:40;97323.52;;;25.55;65.53
36138;BME280;67787;50.074;21.904;2023-08-06T14:46:32;97336.53;;;24.66;62.88
36138;BME280;67787;50.074;21.904;2023-08-06T15:04:43;97377.21;;;24.29;63.01
36138;BME280;67787;50.074;21.904;2023-08-06T16:02:41;97397.20;;;23.40;63.37
36138;BME280;67787;50.074;21.904;2023-08-06T16:35:19;97489.28;;;20.74;62.63
36138;BME280;67787;50.074;21.904;2023-08-06T16:37:54;97495.33;;;20.48;62.71
36138;BME280;67787;50.074;21.904;2023-08-06T18:19:32;97629.26;;;18.18;66.34
